Terminal Aerodrome Forecast
Issued by NWS Green Bay, WI

Home | Current Version | Previous Version | Text Only | Print | Product List | Glossary Off
Versions: 1 2 3 4 5 6 7 8 9 10 11 12 13 14 15 16 17 18 19 20 21 22 23 24 25 26 27 28 29 30 31 32 33 34 35 36 37 38 39

000
FTUS43 KGRB 011724
TAFGRB
TAF
KGRB 011724Z 0118/0218 21006KT 6SM HZ SCT035
     FM020100 21004KT P6SM SCT250
     FM020400 VRB03KT 5SM BR SCT140 BKN250
     FM020900 VRB03KT 4SM BR FEW004 SCT140 BKN250
      TEMPO 0209/0213 1SM BR SCT004 BKN140
     FM021400 29004KT P6SM SCT020 BKN120 PROB30 0216/0218 5SM -SHRA
      BR BKN020=

USA.gov is the U.S. government's official web portal to all federal, state and local government web resources and services.